createdAt,value
2023-02-26T00:00:16.953Z,1.60
2023-02-26T00:02:47.933Z,1.60
2023-02-26T00:05:19.776Z,1.55
2023-02-26T00:07:48.818Z,1.60
2023-02-26T00:10:17.719Z,1.47
2023-02-26T00:12:50.934Z,1.33
2023-02-26T00:15:24.286Z,1.29
2023-02-26T00:18:00.759Z,1.28
2023-02-26T00:20:32.110Z,1.26
2023-02-26T00:23:02.004Z,1.27
2023-02-26T00:25:30.980Z,1.29
2023-02-26T00:28:00.552Z,1.30
2023-02-26T00:30:30.765Z,1.21
2023-02-26T00:33:00.542Z,1.19
2023-02-26T00:35:32.255Z,1.21
2023-02-26T00:38:04.824Z,1.19
2023-02-26T00:40:48.637Z,1.21
2023-02-26T00:43:20.726Z,1.10
2023-02-26T00:46:04.664Z,1.33
2023-02-26T00:48:56.536Z,1.22
2023-02-26T00:51:33.071Z,1.33
2023-02-26T00:54:10.871Z,1.18
2023-02-26T00:56:39.862Z,1.02
2023-02-26T00:59:08.897Z,0.87
2023-02-26T01:01:43.934Z,0.78
2023-02-26T01:04:15.351Z,0.74
2023-02-26T01:06:49.006Z,0.77
2023-02-26T01:09:25.592Z,0.83
2023-02-26T01:11:56.636Z,0.83
2023-02-26T01:14:26.676Z,0.78
2023-02-26T01:17:03.969Z,0.73
2023-02-26T01:19:42.785Z,0.76
2023-02-26T01:22:20.996Z,0.89
2023-02-26T01:24:58.094Z,0.90
2023-02-26T01:27:27.557Z,0.98
2023-02-26T01:29:56.913Z,1.01
2023-02-26T01:32:36.489Z,0.90
2023-02-26T01:35:19.243Z,0.94
2023-02-26T01:37:58.494Z,0.93
2023-02-26T01:41:12.640Z,0.97
2023-02-26T01:43:52.548Z,0.94
2023-02-26T01:46:29.860Z,0.98
2023-02-26T01:49:01.077Z,1.09
2023-02-26T01:51:49.439Z,0.94
2023-02-26T01:54:22.614Z,0.91
2023-02-26T01:56:58.729Z,0.92
2023-02-26T01:59:31.798Z,0.90
2023-02-26T02:02:04.364Z,0.89
2023-02-26T02:04:34.172Z,0.93
2023-02-26T02:07:04.899Z,0.94
2023-02-26T02:09:35.809Z,0.93
2023-02-26T02:12:19.502Z,0.93
2023-02-26T02:15:03.740Z,0.94
2023-02-26T02:17:48.324Z,0.93
2023-02-26T02:20:38.050Z,0.92
2023-02-26T02:23:18.372Z,0.93
2023-02-26T02:26:30.350Z,0.95
2023-02-26T02:29:23.020Z,0.87
2023-02-26T02:31:59.653Z,0.87
2023-02-26T02:34:37.760Z,0.82
2023-02-26T02:37:15.675Z,0.82
2023-02-26T02:39:50.937Z,0.69
2023-02-26T02:42:28.011Z,0.71
2023-02-26T02:45:07.996Z,0.75
2023-02-26T02:47:43.071Z,0.82
2023-02-26T02:50:22.000Z,0.81
2023-02-26T02:52:57.592Z,0.80
2023-02-26T02:55:31.434Z,0.77
2023-02-26T02:58:06.446Z,0.78
2023-02-26T03:00:41.059Z,0.72
2023-02-26T03:03:20.400Z,0.73
2023-02-26T03:05:51.461Z,0.71
2023-02-26T03:08:28.637Z,0.68
2023-02-26T03:10:57.959Z,0.67
2023-02-26T03:13:27.950Z,0.70
2023-02-26T03:16:19.599Z,0.71
2023-02-26T03:19:01.302Z,0.71
2023-02-26T03:21:45.331Z,0.70
2023-02-26T03:24:31.121Z,0.73
2023-02-26T03:27:06.399Z,0.72
2023-02-26T03:29:43.963Z,0.72
2023-02-26T03:32:17.318Z,0.71
2023-02-26T03:34:53.262Z,0.69
2023-02-26T03:37:27.831Z,0.68
2023-02-26T03:40:02.179Z,0.63
2023-02-26T03:42:37.467Z,0.51
2023-02-26T03:45:11.410Z,0.43
2023-02-26T03:47:43.469Z,0.34
2023-02-26T03:50:21.384Z,0.34
2023-02-26T03:53:04.820Z,0.47
2023-02-26T03:56:02.940Z,0.39
2023-02-26T03:58:50.530Z,0.31
2023-02-26T04:01:54.461Z,0.32
2023-02-26T04:04:29.060Z,0.36
2023-02-26T04:06:59.638Z,0.37
2023-02-26T04:09:29.226Z,0.40
2023-02-26T04:11:59.779Z,0.36
2023-02-26T04:14:31.458Z,0.37
2023-02-26T04:17:00.695Z,0.38
2023-02-26T04:19:32.284Z,0.32
2023-02-26T04:22:02.619Z,0.31
2023-02-26T04:24:32.345Z,0.28
2023-02-26T04:27:03.909Z,0.23
2023-02-26T04:29:33.575Z,0.21
2023-02-26T04:32:04.252Z,0.10
2023-02-26T04:34:33.923Z,0.11
2023-02-26T04:37:04.719Z,0.09
2023-02-26T04:39:33.679Z,0.09
2023-02-26T04:42:04.396Z,0.07
2023-02-26T04:44:33.727Z,0.33
2023-02-26T04:47:03.634Z,0.33
2023-02-26T04:49:34.062Z,0.16
2023-02-26T04:52:04.585Z,0.00
2023-02-26T04:54:34.047Z,0.02
2023-02-26T04:57:03.211Z,-0.04
2023-02-26T04:59:32.514Z,-0.11
2023-02-26T05:02:04.480Z,0.08
2023-02-26T05:04:34.050Z,0.28
2023-02-26T05:07:04.929Z,0.08
2023-02-26T05:09:33.989Z,-0.16
2023-02-26T05:12:02.965Z,-0.24
2023-02-26T05:14:31.940Z,-0.19
2023-02-26T05:17:01.274Z,-0.11
2023-02-26T05:19:30.258Z,-0.15
2023-02-26T05:21:59.286Z,-0.13
2023-02-26T05:24:29.677Z,0.04
2023-02-26T05:26:58.684Z,0.03
2023-02-26T05:29:27.675Z,-0.10
2023-02-26T05:31:57.393Z,0.00
2023-02-26T05:34:26.568Z,-0.03
2023-02-26T05:36:55.573Z,-0.25
2023-02-26T05:39:24.506Z,-0.18
2023-02-26T05:41:55.516Z,-0.25
2023-02-26T05:44:24.651Z,-0.27
2023-02-26T05:46:53.723Z,-0.41
2023-02-26T05:49:22.723Z,-0.49
2023-02-26T05:51:51.790Z,-0.40
2023-02-26T05:54:20.859Z,-0.52
2023-02-26T05:56:49.863Z,-0.50
2023-02-26T05:59:20.310Z,-0.48
2023-02-26T06:01:52.006Z,-0.54
2023-02-26T06:04:21.272Z,-0.47
2023-02-26T06:06:50.142Z,-0.45
2023-02-26T06:09:19.282Z,-0.31
2023-02-26T06:11:48.327Z,-0.38
2023-02-26T06:14:17.263Z,-0.26
2023-02-26T06:16:47.691Z,-0.20
2023-02-26T06:19:16.628Z,-0.21
2023-02-26T06:21:47.947Z,-0.22
2023-02-26T06:24:17.054Z,-0.06
2023-02-26T06:26:45.962Z,-0.06
2023-02-26T06:29:14.899Z,-0.13
2023-02-26T06:31:43.947Z,-0.08
2023-02-26T06:34:14.388Z,0.11
2023-02-26T06:36:43.568Z,0.21
2023-02-26T06:39:13.909Z,0.32
2023-02-26T06:41:42.999Z,0.39
2023-02-26T06:44:12.470Z,0.41
2023-02-26T06:46:41.557Z,0.49
2023-02-26T06:49:10.601Z,0.73
2023-02-26T06:51:40.991Z,0.60
2023-02-26T06:54:09.933Z,0.62
2023-02-26T06:56:38.997Z,0.80
2023-02-26T06:59:08.066Z,0.87
2023-02-26T07:01:36.998Z,1.00
2023-02-26T07:04:05.969Z,1.02
2023-02-26T07:06:34.971Z,1.04
2023-02-26T07:09:08.533Z,1.16
2023-02-26T07:11:37.496Z,1.22
2023-02-26T07:14:06.641Z,1.25
2023-02-26T07:16:35.606Z,1.43
2023-02-26T07:19:04.579Z,1.51
2023-02-26T07:21:33.624Z,1.59
2023-02-26T07:24:04.340Z,1.63
2023-02-26T07:26:33.295Z,1.63
2023-02-26T07:29:02.421Z,1.61
2023-02-26T07:31:31.708Z,1.60
2023-02-26T07:34:01.574Z,1.67
2023-02-26T07:36:30.877Z,1.78
2023-02-26T07:38:59.914Z,1.96
2023-02-26T07:41:30.276Z,2.13
2023-02-26T07:43:59.258Z,2.22
2023-02-26T07:46:28.567Z,2.45
2023-02-26T07:48:58.553Z,2.66
2023-02-26T07:51:28.249Z,2.71
2023-02-26T07:53:57.298Z,2.72
2023-02-26T07:56:26.461Z,2.95
2023-02-26T07:58:56.891Z,3.43
2023-02-26T08:01:26.043Z,3.49
2023-02-26T08:03:55.054Z,3.48
2023-02-26T08:06:24.412Z,3.62
2023-02-26T08:08:56.551Z,3.49
2023-02-26T08:11:25.558Z,3.37
2023-02-26T08:13:56.648Z,3.27
2023-02-26T08:16:26.044Z,3.16
2023-02-26T08:18:55.290Z,3.11
2023-02-26T08:21:24.598Z,3.22
2023-02-26T08:23:56.335Z,3.41
2023-02-26T08:26:28.264Z,3.52
2023-02-26T08:28:59.248Z,3.44
2023-02-26T08:31:28.482Z,3.28
2023-02-26T08:33:57.767Z,3.43
2023-02-26T08:36:27.592Z,3.34
2023-02-26T08:38:56.674Z,3.39
2023-02-26T08:41:27.665Z,3.51
2023-02-26T08:43:58.162Z,3.74
2023-02-26T08:46:27.976Z,4.05
2023-02-26T08:48:57.439Z,4.43
2023-02-26T08:51:27.012Z,4.75
2023-02-26T08:53:57.091Z,4.90
2023-02-26T08:56:28.841Z,5.15
2023-02-26T08:58:59.136Z,5.37
2023-02-26T09:01:28.653Z,5.47
2023-02-26T09:04:01.007Z,5.24
2023-02-26T09:06:30.452Z,4.94
2023-02-26T09:08:59.369Z,4.80
2023-02-26T09:11:30.685Z,4.82
2023-02-26T09:14:03.387Z,4.87
2023-02-26T09:16:35.609Z,5.18
2023-02-26T09:19:06.012Z,5.24
2023-02-26T09:21:35.818Z,5.09
2023-02-26T09:24:05.081Z,5.58
2023-02-26T09:26:34.212Z,5.76
2023-02-26T09:29:04.537Z,5.68
2023-02-26T09:31:34.155Z,5.95
2023-02-26T09:34:03.278Z,4.75
2023-02-26T09:36:32.316Z,4.47
2023-02-26T09:39:01.666Z,4.92
2023-02-26T09:41:35.467Z,5.40
2023-02-26T09:44:17.848Z,5.59
2023-02-26T09:46:56.875Z,5.81
2023-02-26T09:49:40.271Z,5.93
2023-02-26T09:52:21.232Z,5.74
2023-02-26T09:54:53.946Z,5.60
2023-02-26T09:57:32.112Z,5.78
2023-02-26T10:00:05.404Z,6.03
2023-02-26T10:02:51.987Z,5.94
2023-02-26T10:05:29.860Z,5.91
2023-02-26T10:08:03.678Z,5.94
2023-02-26T10:10:45.067Z,5.74
2023-02-26T10:13:26.840Z,5.82
2023-02-26T10:16:04.793Z,5.69
2023-02-26T10:18:38.939Z,5.58
2023-02-26T10:21:14.383Z,5.35
2023-02-26T10:23:48.894Z,5.59
2023-02-26T10:26:24.413Z,5.62
2023-02-26T10:29:03.980Z,5.37
2023-02-26T10:31:50.377Z,5.77
2023-02-26T10:34:28.749Z,5.69
2023-02-26T10:37:15.084Z,5.72
2023-02-26T10:39:51.279Z,6.09
2023-02-26T10:42:34.939Z,6.43
2023-02-26T10:45:24.252Z,6.62
2023-02-26T10:48:28.228Z,7.02
2023-02-26T10:50:59.830Z,6.98
2023-02-26T10:53:32.020Z,6.99
2023-02-26T10:56:09.254Z,6.47
2023-02-26T10:58:39.446Z,6.53
2023-02-26T11:01:15.694Z,6.55
2023-02-26T11:03:50.483Z,6.37
2023-02-26T11:06:26.958Z,6.12
2023-02-26T11:08:58.930Z,6.11
2023-02-26T11:11:47.999Z,6.13
2023-02-26T11:14:17.887Z,5.73
2023-02-26T11:16:51.187Z,5.69
2023-02-26T11:19:29.447Z,5.99
2023-02-26T11:22:01.054Z,5.79
2023-02-26T11:24:34.924Z,5.84
2023-02-26T11:27:08.033Z,5.59
2023-02-26T11:29:48.089Z,5.51
2023-02-26T11:32:21.106Z,5.01
2023-02-26T11:34:58.934Z,5.08
2023-02-26T11:37:31.465Z,5.18
2023-02-26T11:40:14.929Z,5.23
2023-02-26T11:42:50.648Z,5.15
2023-02-26T11:45:22.186Z,5.24
2023-02-26T11:48:02.402Z,5.34
2023-02-26T11:50:43.517Z,5.53
2023-02-26T11:53:21.483Z,5.64
2023-02-26T11:56:00.092Z,5.79
2023-02-26T11:58:32.050Z,6.02
2023-02-26T12:01:05.393Z,5.93
2023-02-26T12:03:41.323Z,6.06
2023-02-26T12:06:19.584Z,6.20
2023-02-26T12:08:49.989Z,6.49
2023-02-26T12:11:39.532Z,6.22
2023-02-26T12:14:53.745Z,6.15
2023-02-26T12:17:36.402Z,6.01
2023-02-26T12:20:23.938Z,5.89
2023-02-26T12:23:14.059Z,5.43
2023-02-26T12:26:03.944Z,5.31
2023-02-26T12:29:11.622Z,5.71
2023-02-26T12:32:29.087Z,5.91
2023-02-26T12:35:32.178Z,5.46
2023-02-26T12:38:20.468Z,5.53
2023-02-26T12:41:29.639Z,5.48
2023-02-26T12:44:02.121Z,5.28
2023-02-26T12:46:52.480Z,5.47
2023-02-26T12:50:08.172Z,5.09
2023-02-26T12:53:14.227Z,5.37
2023-02-26T12:55:58.744Z,5.31
2023-02-26T12:58:43.779Z,5.60
2023-02-26T13:01:59.596Z,5.65
2023-02-26T13:05:20.558Z,5.75
2023-02-26T13:08:09.387Z,5.43
2023-02-26T13:10:53.006Z,5.56
2023-02-26T13:13:44.843Z,5.46
2023-02-26T13:16:30.833Z,5.19
2023-02-26T13:19:13.445Z,4.61
2023-02-26T13:21:47.997Z,4.67
2023-02-26T13:24:25.554Z,4.62
2023-02-26T13:26:57.371Z,4.78
2023-02-26T13:29:30.717Z,4.73
2023-02-26T13:32:05.382Z,4.96
2023-02-26T13:34:42.312Z,5.07
2023-02-26T13:37:24.985Z,4.75
2023-02-26T13:40:18.045Z,4.38
2023-02-26T13:42:52.838Z,4.51
2023-02-26T13:45:56.104Z,4.62
2023-02-26T13:48:41.860Z,4.55
2023-02-26T13:51:29.327Z,4.25
2023-02-26T13:54:02.188Z,4.33
2023-02-26T13:56:56.288Z,4.43
2023-02-26T13:59:54.818Z,4.18
2023-02-26T14:02:47.207Z,4.08
2023-02-26T14:06:24.303Z,3.90
2023-02-26T14:08:59.643Z,4.12
2023-02-26T14:11:45.751Z,4.03
2023-02-26T14:14:37.380Z,4.00
2023-02-26T14:17:48.675Z,3.88
2023-02-26T14:20:26.304Z,3.48
2023-02-26T14:23:26.980Z,3.62
2023-02-26T14:25:56.501Z,3.43
2023-02-26T14:28:56.983Z,3.43
2023-02-26T14:31:28.841Z,3.59
2023-02-26T14:34:15.786Z,3.05
2023-02-26T14:36:50.626Z,3.21
2023-02-26T14:39:31.555Z,2.97
2023-02-26T14:42:07.677Z,3.12
2023-02-26T14:44:42.397Z,2.97
2023-02-26T14:47:14.847Z,2.93
2023-02-26T14:49:46.909Z,3.15
2023-02-26T14:52:56.118Z,3.31
2023-02-26T14:55:45.829Z,3.15
2023-02-26T14:58:43.078Z,3.11
2023-02-26T15:01:31.963Z,3.08
2023-02-26T15:04:21.264Z,3.08
2023-02-26T15:07:23.714Z,2.89
2023-02-26T15:10:14.093Z,2.59
2023-02-26T15:13:01.814Z,2.47
2023-02-26T15:15:42.628Z,2.57
2023-02-26T15:18:31.126Z,2.68
2023-02-26T15:21:13.736Z,2.60
2023-02-26T15:23:46.078Z,2.43
2023-02-26T15:26:23.092Z,2.49
2023-02-26T15:28:53.346Z,2.32
2023-02-26T15:31:31.825Z,2.33
2023-02-26T15:34:01.820Z,2.44
2023-02-26T15:36:32.967Z,2.30
2023-02-26T15:39:04.081Z,2.23
2023-02-26T15:41:33.935Z,1.97
2023-02-26T15:44:10.663Z,2.02
2023-02-26T15:46:44.070Z,2.20
2023-02-26T15:49:20.456Z,2.07
2023-02-26T15:51:52.804Z,2.13
2023-02-26T15:54:27.748Z,2.07
2023-02-26T15:56:57.058Z,1.91
2023-02-26T15:59:30.557Z,1.93
2023-02-26T16:01:59.721Z,1.76
2023-02-26T16:04:30.989Z,1.71
2023-02-26T16:07:04.217Z,1.79
2023-02-26T16:09:39.549Z,1.81
2023-02-26T16:12:16.272Z,1.70
2023-02-26T16:14:50.112Z,1.71
2023-02-26T16:17:26.899Z,1.69
2023-02-26T16:20:00.160Z,1.71
2023-02-26T16:22:34.929Z,1.74
2023-02-26T16:25:10.530Z,1.75
2023-02-26T16:27:40.787Z,1.71
2023-02-26T16:30:20.160Z,1.66
2023-02-26T16:32:52.524Z,1.53
2023-02-26T16:35:29.298Z,1.54
2023-02-26T16:37:59.702Z,1.59
2023-02-26T16:40:34.933Z,1.51
2023-02-26T16:43:07.318Z,1.62
2023-02-26T16:45:50.897Z,1.55
2023-02-26T16:48:26.494Z,1.40
2023-02-26T16:51:02.138Z,1.33
2023-02-26T16:53:37.871Z,1.37
2023-02-26T16:56:07.295Z,1.30
2023-02-26T16:58:36.484Z,1.28
2023-02-26T17:01:13.810Z,1.26
2023-02-26T17:03:44.921Z,1.25
2023-02-26T17:06:19.072Z,1.22
2023-02-26T17:08:54.250Z,1.12
2023-02-26T17:11:28.266Z,1.15
2023-02-26T17:14:19.131Z,1.27
2023-02-26T17:16:53.236Z,1.16
2023-02-26T17:19:22.632Z,1.11
2023-02-26T17:21:58.663Z,1.03
2023-02-26T17:24:33.922Z,0.98
2023-02-26T17:27:08.077Z,1.04
2023-02-26T17:29:40.702Z,1.00
2023-02-26T17:32:20.487Z,1.11
2023-02-26T17:34:50.801Z,1.19
2023-02-26T17:37:21.530Z,1.18
2023-02-26T17:39:52.372Z,1.10
2023-02-26T17:42:23.267Z,1.12
2023-02-26T17:44:52.890Z,1.15
2023-02-26T17:47:25.761Z,1.15
2023-02-26T17:49:55.625Z,1.20
2023-02-26T17:52:26.551Z,1.23
2023-02-26T17:54:57.328Z,1.15
2023-02-26T17:57:28.605Z,1.13
2023-02-26T17:59:57.703Z,1.23
2023-02-26T18:02:28.226Z,1.27
2023-02-26T18:04:57.608Z,1.23
2023-02-26T18:07:26.803Z,1.12
2023-02-26T18:09:57.223Z,1.14
2023-02-26T18:12:27.155Z,1.26
2023-02-26T18:14:56.570Z,1.08
2023-02-26T18:17:31.272Z,1.06
2023-02-26T18:20:00.796Z,1.05
2023-02-26T18:22:30.578Z,0.93
2023-02-26T18:25:01.382Z,0.96
2023-02-26T18:27:35.439Z,1.00
2023-02-26T18:30:06.090Z,0.89
2023-02-26T18:32:37.476Z,0.86
2023-02-26T18:35:07.213Z,0.88
2023-02-26T18:37:36.221Z,0.85
2023-02-26T18:40:13.754Z,0.94
2023-02-26T18:42:43.144Z,1.00
2023-02-26T18:45:13.278Z,1.07
2023-02-26T18:47:44.768Z,0.93
2023-02-26T18:50:15.852Z,1.03
2023-02-26T18:52:45.715Z,0.97
2023-02-26T18:55:16.393Z,1.00
2023-02-26T18:57:45.335Z,0.95
2023-02-26T19:00:16.361Z,0.99
2023-02-26T19:02:47.133Z,1.06
2023-02-26T19:05:23.336Z,1.01
2023-02-26T19:07:52.994Z,1.03
2023-02-26T19:10:24.153Z,0.89
2023-02-26T19:12:53.287Z,1.01
2023-02-26T19:15:40.333Z,1.11
2023-02-26T19:18:09.992Z,1.07
2023-02-26T19:20:40.288Z,0.97
2023-02-26T19:23:13.590Z,0.86
2023-02-26T19:25:57.445Z,0.90
2023-02-26T19:28:28.707Z,0.91
2023-02-26T19:30:57.817Z,0.93
2023-02-26T19:33:26.823Z,1.01
2023-02-26T19:35:59.297Z,0.95
2023-02-26T19:38:34.450Z,0.88
2023-02-26T19:41:05.276Z,0.92
2023-02-26T19:43:36.187Z,1.07
2023-02-26T19:46:09.168Z,1.04
2023-02-26T19:48:39.415Z,0.98
2023-02-26T19:51:09.289Z,0.90
2023-02-26T19:53:44.497Z,0.82
2023-02-26T19:56:15.333Z,0.97
2023-02-26T19:58:44.489Z,0.93
2023-02-26T20:01:13.545Z,0.99
2023-02-26T20:03:43.401Z,0.90
2023-02-26T20:06:12.781Z,0.92
2023-02-26T20:08:42.665Z,0.89
2023-02-26T20:11:12.331Z,0.88
2023-02-26T20:13:43.180Z,0.98
2023-02-26T20:16:12.542Z,0.94
2023-02-26T20:18:41.778Z,1.01
2023-02-26T20:21:14.929Z,0.99
2023-02-26T20:23:44.238Z,0.85
2023-02-26T20:26:16.649Z,0.82
2023-02-26T20:28:47.374Z,0.76
2023-02-26T20:31:16.713Z,0.92
2023-02-26T20:33:46.016Z,0.99
2023-02-26T20:36:15.608Z,0.86
2023-02-26T20:38:46.304Z,0.77
2023-02-26T20:41:16.264Z,0.77
2023-02-26T20:43:46.993Z,0.91
2023-02-26T20:46:16.106Z,0.98
2023-02-26T20:48:45.333Z,0.85
2023-02-26T20:51:15.638Z,0.84
2023-02-26T20:53:45.850Z,0.77
2023-02-26T20:56:15.324Z,0.72
2023-02-26T20:58:44.350Z,0.75
2023-02-26T21:01:15.029Z,0.73
2023-02-26T21:03:44.087Z,0.71
2023-02-26T21:06:13.180Z,0.78
2023-02-26T21:08:43.803Z,0.77
2023-02-26T21:11:13.486Z,0.89
2023-02-26T21:13:44.409Z,0.86
2023-02-26T21:16:15.059Z,0.78
2023-02-26T21:18:44.180Z,0.80
2023-02-26T21:21:13.158Z,0.80
2023-02-26T21:23:42.349Z,0.85
2023-02-26T21:26:11.303Z,0.75
2023-02-26T21:28:40.521Z,0.81
2023-02-26T21:31:10.243Z,0.84
2023-02-26T21:33:40.749Z,0.78
2023-02-26T21:36:11.509Z,0.79
2023-02-26T21:38:40.834Z,0.73
2023-02-26T21:41:09.762Z,0.83
2023-02-26T21:43:39.214Z,0.93
2023-02-26T21:46:08.254Z,0.84
2023-02-26T21:48:37.265Z,0.75
2023-02-26T21:51:08.530Z,0.75
2023-02-26T21:53:37.544Z,0.66
2023-02-26T21:56:06.731Z,0.49
2023-02-26T21:58:36.261Z,0.63
2023-02-26T22:01:05.799Z,0.87
2023-02-26T22:03:38.491Z,0.82
2023-02-26T22:06:09.277Z,0.72
2023-02-26T22:08:38.203Z,0.66
2023-02-26T22:11:07.250Z,0.60
2023-02-26T22:13:36.325Z,0.48
2023-02-26T22:16:06.381Z,0.56
2023-02-26T22:18:35.497Z,0.70
2023-02-26T22:21:04.704Z,0.60
2023-02-26T22:23:37.085Z,0.83
2023-02-26T22:26:07.901Z,0.57
2023-02-26T22:28:36.987Z,0.63
2023-02-26T22:31:06.475Z,0.46
2023-02-26T22:33:35.541Z,0.44
2023-02-26T22:36:05.353Z,0.42
2023-02-26T22:38:35.674Z,0.34
2023-02-26T22:41:04.905Z,0.38
2023-02-26T22:43:34.110Z,0.39
2023-02-26T22:46:03.175Z,0.42
2023-02-26T22:48:32.170Z,0.27
2023-02-26T22:51:01.091Z,0.27
2023-02-26T22:53:31.327Z,0.30
2023-02-26T22:56:01.749Z,0.36
2023-02-26T22:58:30.734Z,0.31
2023-02-26T23:01:04.354Z,0.18
2023-02-26T23:03:34.146Z,0.19
2023-02-26T23:06:03.290Z,0.15
2023-02-26T23:08:32.229Z,0.11
2023-02-26T23:11:03.973Z,0.08
2023-02-26T23:13:35.576Z,0.04
2023-02-26T23:16:05.850Z,-0.01
2023-02-26T23:18:36.664Z,-0.01
2023-02-26T23:21:09.068Z,-0.07
2023-02-26T23:23:38.124Z,-0.28
2023-02-26T23:26:10.820Z,-0.27
2023-02-26T23:28:39.923Z,-0.30
2023-02-26T23:31:09.465Z,-0.33
2023-02-26T23:33:38.576Z,-0.49
2023-02-26T23:36:08.849Z,-0.48
2023-02-26T23:38:38.089Z,-0.50
2023-02-26T23:41:08.625Z,-0.51
2023-02-26T23:43:40.246Z,-0.24
2023-02-26T23:46:12.064Z,-0.12
2023-02-26T23:48:41.199Z,-0.35
2023-02-26T23:51:10.229Z,-0.35
2023-02-26T23:53:39.224Z,-0.20
2023-02-26T23:56:09.824Z,-0.19
2023-02-26T23:58:38.736Z,-0.32
